Time;durP1;ratioP1;P1;durP2;ratioP2;P2;SDS_P1;SDS_P2;PMS_P1;PMS_P2;Temp;Humidity;BMP_temperature;BMP_pressure;BME280_temperature;BME280_humidity;BME280_pressure;Samples;Min_cycle;Max_cycle;Signal;HPM_P1;HPM_P2
2023/04/07 00:01:58;;;;;;;6.80;6.20;;;;;;;-143.84;50.56;45189.97;5069148;28;20476;-69
2023/04/07 00:04:25;;;;;;;10.90;6.60;;;;;;;-143.84;50.88;45209.03;5068714;28;20947;-69
2023/04/07 00:06:52;;;;;;;8.13;6.30;;;;;;;-143.84;49.60;45189.97;5069521;28;20498;-69
2023/04/07 00:09:20;;;;;;;13.50;7.20;;;;;;;-143.84;50.08;45193.78;5069194;28;20453;-69
2023/04/07 00:11:48;;;;;;;10.33;6.40;;;;;;;-143.84;49.93;45220.44;5068890;28;20534;-69
2023/04/07 00:14:15;;;;;;;12.90;6.40;;;;;;;-143.84;49.34;45220.44;5068887;28;20441;-69
2023/04/07 00:16:42;;;;;;;7.47;6.30;;;;;;;-143.84;49.72;45212.84;5068524;28;20537;-69
2023/04/07 00:19:09;;;;;;;6.87;6.03;;;;;;;-143.84;49.68;45188.06;5068611;28;20490;-69
2023/04/07 00:21:36;;;;;;;8.40;6.40;;;;;;;-143.84;50.05;45216.63;5068881;28;20459;-69
2023/04/07 00:24:04;;;;;;;6.60;6.00;;;;;;;-143.84;49.88;45197.59;5069075;28;20445;-69
2023/04/07 00:26:32;;;;;;;12.00;6.93;;;;;;;-143.84;49.67;45231.88;5069057;28;20440;-69
2023/04/07 00:29:00;;;;;;;8.60;6.20;;;;;;;-143.84;49.54;45197.59;5068551;28;20451;-69
2023/04/07 00:31:27;;;;;;;7.83;6.10;;;;;;;-143.84;49.69;45216.63;5068730;28;20532;-69
2023/04/07 00:33:56;;;;;;;11.07;6.60;;;;;;;-143.84;48.81;45180.47;5068673;28;20429;-69
2023/04/07 00:36:23;;;;;;;8.77;6.43;;;;;;;-143.84;49.28;45222.34;5068584;28;20574;-69
2023/04/07 00:38:50;;;;;;;8.10;6.30;;;;;;;-143.84;49.27;45214.72;5068351;28;20448;-69
2023/04/07 00:41:18;;;;;;;11.77;6.83;;;;;;;-143.84;48.83;45193.78;5068727;28;20494;-69
2023/04/07 00:43:46;;;;;;;6.87;6.00;;;;;;;-143.84;48.86;45199.50;5068318;28;20448;-69
2023/04/07 00:46:13;;;;;;;8.23;6.40;;;;;;;-143.84;49.00;45203.31;5068686;28;20452;-69
2023/04/07 00:48:41;;;;;;;7.07;6.17;;;;;;;-143.84;49.49;45207.13;5067623;28;20449;-69
2023/04/07 00:51:08;;;;;;;15.50;7.90;;;;;;;-143.84;49.56;45237.59;5068011;28;20957;-69
2023/04/07 00:53:35;;;;;;;10.50;6.47;;;;;;;-143.84;49.05;45188.06;5067762;28;20814;-69
2023/04/07 00:56:02;;;;;;;9.20;6.40;;;;;;;-143.84;49.52;45220.44;5068401;28;20480;-69
2023/04/07 00:58:32;;;;;;;9.90;6.70;;;;;;;-143.84;49.63;45212.84;5068897;28;20459;-69
2023/04/07 01:01:15;;;;;;;7.80;6.13;;;;;;;-143.84;49.36;45203.31;5068461;28;20448;-69
2023/04/07 01:03:53;;;;;;;7.13;6.43;;;;;;;-143.84;49.81;45212.84;5068543;28;20978;-69
2023/04/07 01:06:28;;;;;;;13.73;7.43;;;;;;;-143.84;49.89;45193.78;5050675;28;20444;-69
2023/04/07 01:09:02;;;;;;;10.50;6.90;;;;;;;-143.84;50.26;45193.78;5068389;28;20439;-69
2023/04/07 01:11:37;;;;;;;8.17;6.83;;;;;;;-143.84;49.87;45188.06;5068395;28;20483;-69
2023/04/07 01:14:06;;;;;;;9.10;7.63;;;;;;;-143.84;50.47;45191.88;5068125;28;20537;-69
2023/04/07 01:16:40;;;;;;;8.30;6.33;;;;;;;-143.84;50.32;45216.63;5068451;28;20476;-69
2023/04/07 01:19:15;;;;;;;14.33;7.40;;;;;;;-143.84;50.39;45207.13;5068261;28;20452;-69
2023/04/07 01:21:46;;;;;;;10.13;7.10;;;;;;;-143.84;50.48;45184.25;5068434;28;20432;-69
2023/04/07 01:24:33;;;;;;;9.50;7.47;;;;;;;-143.84;50.97;45197.59;5068263;28;20527;-69
2023/04/07 01:27:14;;;;;;;10.27;7.30;;;;;;;-143.84;50.48;45229.97;5068237;28;20946;-69
2023/04/07 01:29:47;;;;;;;7.60;6.87;;;;;;;-143.84;49.93;45216.63;5068051;28;20443;-69
2023/04/07 01:32:16;;;;;;;12.53;7.70;;;;;;;-143.84;49.29;45193.78;5068021;28;20514;-69
2023/04/07 01:34:45;;;;;;;10.30;6.97;;;;;;;-143.84;49.98;45218.53;5067724;28;20451;-69
2023/04/07 01:37:14;;;;;;;9.00;7.20;;;;;;;-143.84;49.14;45210.94;5067843;28;20481;-69
2023/04/07 01:39:42;;;;;;;7.43;6.60;;;;;;;-143.84;49.59;45191.88;5068205;28;20441;-68
2023/04/07 01:42:10;;;;;;;12.63;8.40;;;;;;;-143.84;49.05;45218.53;5067539;28;20801;-68
2023/04/07 01:44:39;;;;;;;24.10;8.03;;;;;;;-143.84;49.14;45226.16;5068401;28;20444;-69
2023/04/07 01:47:08;;;;;;;18.07;8.50;;;;;;;-143.84;49.39;45209.03;5069900;28;20441;-68
2023/04/07 01:49:36;;;;;;;8.57;6.67;;;;;;;-143.84;49.31;45197.59;5071699;28;20448;-69
2023/04/07 01:52:05;;;;;;;11.37;8.10;;;;;;;-143.84;49.31;45207.13;5071622;28;20449;-69
2023/04/07 01:54:33;;;;;;;8.73;7.80;;;;;;;-143.84;49.67;45216.63;5071341;28;20437;-69
2023/04/07 01:57:00;;;;;;;9.83;7.37;;;;;;;-143.84;49.69;45186.16;5071265;28;21005;-69
2023/04/07 01:59:29;;;;;;;7.93;7.20;;;;;;;-143.84;49.82;45178.56;5071348;28;20476;-69
2023/04/07 02:01:58;;;;;;;11.00;7.90;;;;;;;-143.84;49.16;45210.94;5071247;28;20448;-69
2023/04/07 02:04:32;;;;;;;9.37;7.77;;;;;;;-143.84;48.82;45241.41;5071401;28;20449;-69
2023/04/07 02:07:03;;;;;;;8.97;7.30;;;;;;;-143.84;48.68;45199.50;5071306;28;20448;-68
2023/04/07 02:09:33;;;;;;;12.43;8.50;;;;;;;-143.84;48.96;45231.88;5071404;28;20463;-68
2023/04/07 02:12:02;;;;;;;14.83;8.10;;;;;;;-143.84;49.08;45233.78;5070454;28;20484;-69
2023/04/07 02:14:30;;;;;;;9.20;8.20;;;;;;;-143.84;49.40;45212.84;5071322;28;20433;-68
2023/04/07 02:17:01;;;;;;;9.97;7.83;;;;;;;-143.84;48.68;45188.06;5071226;28;20538;-68
2023/04/07 02:19:30;;;;;;;9.27;7.97;;;;;;;-143.84;48.55;45231.88;5071312;28;20819;-68
2023/04/07 02:21:58;;;;;;;19.70;7.90;;;;;;;-143.84;49.14;45216.63;5071205;28;20448;-68
2023/04/07 02:24:25;;;;;;;10.97;8.23;;;;;;;-143.84;48.96;45209.03;5070688;28;20448;-68
2023/04/07 02:26:52;;;;;;;12.40;8.63;;;;;;;-143.84;49.52;45205.22;5070607;28;20433;-69
2023/04/07 02:29:19;;;;;;;10.80;8.20;;;;;;;-143.84;49.52;45201.41;5070953;28;20452;-69
2023/04/07 02:31:48;;;;;;;8.80;7.67;;;;;;;-143.84;49.14;45199.50;5070907;28;20498;-68
2023/04/07 02:34:15;;;;;;;10.70;7.53;;;;;;;-143.84;49.25;45197.59;5071117;28;20494;-69
2023/04/07 02:36:44;;;;;;;9.93;8.47;;;;;;;-143.84;49.36;45209.03;5071071;28;20481;-69
2023/04/07 02:39:11;;;;;;;12.73;8.33;;;;;;;-143.84;48.85;45220.44;5070751;28;20943;-69
2023/04/07 02:41:38;;;;;;;9.77;8.20;;;;;;;-143.84;48.80;45220.44;5070789;28;20472;-68
2023/04/07 02:44:06;;;;;;;11.00;8.03;;;;;;;-143.84;49.17;45191.88;5070441;28;20436;-68
2023/04/07 02:46:35;;;;;;;12.47;9.40;;;;;;;-143.84;49.62;45207.13;5069477;28;20433;-69
2023/04/07 02:49:02;;;;;;;13.77;8.10;;;;;;;-143.84;50.28;45205.22;5069484;28;21237;-68
2023/04/07 02:51:30;;;;;;;9.83;8.33;;;;;;;-143.84;48.93;45197.59;5069552;28;20961;-68
2023/04/07 02:53:58;;;;;;;12.47;8.50;;;;;;;-143.84;49.71;45188.06;5069285;28;20445;-69
2023/04/07 02:56:25;;;;;;;10.07;7.63;;;;;;;-143.84;49.82;45224.25;5069436;28;20475;-68
2023/04/07 02:58:53;;;;;;;16.30;9.80;;;;;;;-143.84;49.33;45205.22;5068448;28;20441;-68
2023/04/07 03:01:20;;;;;;;12.87;8.70;;;;;;;-143.84;49.98;45212.84;5069327;28;20958;-69
2023/04/07 03:03:47;;;;;;;12.73;9.00;;;;;;;-143.84;50.25;45197.59;5070231;28;20860;-68
2023/04/07 03:06:14;;;;;;;19.40;8.40;;;;;;;-143.84;50.16;45205.22;5070172;28;20445;-68
2023/04/07 03:08:42;;;;;;;12.77;9.07;;;;;;;-143.84;50.44;45222.34;5070284;28;20503;-68
2023/04/07 03:11:11;;;;;;;13.67;9.37;;;;;;;-143.84;51.08;45209.03;5070050;28;20507;-68
2023/04/07 03:13:38;;;;;;;15.07;9.50;;;;;;;-143.84;51.17;45205.22;5070082;28;21067;-70
2023/04/07 03:16:06;;;;;;;12.87;9.50;;;;;;;-143.84;50.79;45178.56;5070371;28;20441;-68
2023/04/07 03:18:33;;;;;;;13.30;9.60;;;;;;;-143.84;51.75;45229.97;5069452;28;20476;-69
2023/04/07 03:21:00;;;;;;;15.50;9.60;;;;;;;-143.84;51.63;45214.72;5069085;28;20510;-69
2023/04/07 03:23:28;;;;;;;13.20;9.30;;;;;;;-143.84;52.16;45209.03;5069719;28;20503;-67
2023/04/07 03:25:56;;;;;;;15.87;9.97;;;;;;;-143.84;50.78;45197.59;5069761;28;20481;-68
2023/04/07 03:28:25;;;;;;;17.70;10.80;;;;;;;-143.84;50.91;45199.50;5069719;28;20455;-68
2023/04/07 03:30:52;;;;;;;14.63;9.63;;;;;;;-143.84;51.25;45189.97;5069923;28;20877;-68
2023/04/07 03:33:20;;;;;;;15.53;10.07;;;;;;;-143.84;51.31;45214.72;5069617;28;20437;-68
2023/04/07 03:35:47;;;;;;;15.00;9.90;;;;;;;-143.84;50.64;45186.16;5069820;28;20449;-68
2023/04/07 03:38:14;;;;;;;14.10;9.77;;;;;;;-143.84;50.48;45203.31;5069680;28;20491;-69
2023/04/07 03:40:41;;;;;;;19.77;10.10;;;;;;;-143.84;50.34;45228.06;5068767;28;20440;-69
2023/04/07 03:43:12;;;;;;;18.97;10.07;;;;;;;-143.84;50.28;45207.13;5068806;28;21369;-69
2023/04/07 03:45:41;;;;;;;17.57;9.67;;;;;;;-143.84;50.09;45203.31;5069112;28;20437;-68
2023/04/07 03:48:10;;;;;;;14.10;10.47;;;;;;;-143.84;50.31;45212.84;5050709;28;20997;-68
2023/04/07 03:50:38;;;;;;;14.00;9.70;;;;;;;-143.84;50.68;45228.06;5068436;28;20445;-69
2023/04/07 03:53:05;;;;;;;13.60;10.33;;;;;;;-143.84;50.72;45214.72;5068911;28;20432;-69
2023/04/07 03:55:35;;;;;;;12.37;9.67;;;;;;;-143.84;50.43;45201.41;5069201;28;20444;-68
2023/04/07 03:58:02;;;;;;;12.50;10.20;;;;;;;-143.84;50.25;45203.31;5069101;28;20484;-69
2023/04/07 04:00:30;;;;;;;13.83;10.13;;;;;;;-143.84;49.71;45199.50;5068880;28;20447;-68
2023/04/07 04:02:59;;;;;;;13.80;10.67;;;;;;;-143.84;49.58;45193.78;5068649;28;20957;-68
2023/04/07 04:05:27;;;;;;;22.07;11.07;;;;;;;-143.84;49.63;45212.84;5068306;28;20510;-68
2023/04/07 04:07:55;;;;;;;19.40;11.27;;;;;;;-143.84;49.12;45174.75;5068301;28;20433;-69
2023/04/07 04:10:22;;;;;;;12.13;9.47;;;;;;;-143.84;48.85;45209.03;5067676;28;20989;-69
2023/04/07 04:12:50;;;;;;;17.80;11.10;;;;;;;-143.84;49.02;45212.84;5068270;28;20468;-68
2023/04/07 04:15:17;;;;;;;15.50;11.50;;;;;;;-143.84;48.77;45184.25;5068667;28;20443;-68
2023/04/07 04:17:45;;;;;;;16.77;10.90;;;;;;;-143.84;48.12;45199.50;5069064;28;20907;-68
2023/04/07 04:20:14;;;;;;;16.33;10.70;;;;;;;-143.84;48.64;45214.72;5068928;28;20869;-68
2023/04/07 04:22:41;;;;;;;18.10;11.03;;;;;;;-143.84;48.36;45195.69;5068819;28;21212;-68
2023/04/07 04:25:09;;;;;;;14.83;10.67;;;;;;;-143.84;47.92;45203.31;5069318;28;20527;-69
2023/04/07 04:27:36;;;;;;;16.23;10.80;;;;;;;-143.84;48.38;45201.41;5069078;28;20464;-68
2023/04/07 04:30:04;;;;;;;18.10;10.93;;;;;;;-143.84;48.68;45222.34;5068942;28;21275;-68
2023/04/07 04:32:31;;;;;;;15.20;10.93;;;;;;;-143.84;48.71;45210.94;5068494;28;20437;-68
2023/04/07 04:34:58;;;;;;;13.33;11.17;;;;;;;-143.84;48.83;45189.97;5068795;28;20448;-68
2023/04/07 04:37:28;;;;;;;13.53;11.27;;;;;;;-143.84;49.20;45178.56;5068958;28;20557;-68
2023/04/07 04:39:55;;;;;;;17.60;11.80;;;;;;;-143.84;48.68;45226.16;5068732;28;20442;-68
2023/04/07 04:42:22;;;;;;;15.33;12.00;;;;;;;-143.84;48.90;45222.34;5068805;28;20853;-68
2023/04/07 04:44:49;;;;;;;21.43;10.73;;;;;;;-143.84;49.26;45189.97;5068743;28;20498;-68
2023/04/07 04:47:16;;;;;;;15.20;11.30;;;;;;;-143.84;49.36;45209.03;5068608;28;20984;-68
2023/04/07 04:49:43;;;;;;;17.77;11.47;;;;;;;-143.84;49.01;45209.03;5068797;28;20445;-69
2023/04/07 04:52:11;;;;;;;21.77;11.30;;;;;;;-143.84;49.39;45186.16;5068632;28;20452;-68
2023/04/07 04:54:40;;;;;;;13.80;11.07;;;;;;;-143.84;49.20;45188.06;5068516;28;20445;-68
2023/04/07 04:57:08;;;;;;;13.60;11.10;;;;;;;-143.84;49.15;45209.03;5068424;28;20488;-68
2023/04/07 04:59:35;;;;;;;14.93;11.43;;;;;;;-143.84;49.18;45218.53;5068496;28;20448;-68
2023/04/07 05:02:02;;;;;;;19.07;11.93;;;;;;;-143.84;48.91;45199.50;5067649;28;20443;-68
2023/04/07 05:04:29;;;;;;;21.43;11.27;;;;;;;-143.84;48.74;45214.72;5067705;28;20988;-69
2023/04/07 05:06:56;;;;;;;19.20;12.27;;;;;;;-143.84;48.81;45201.41;5067570;28;20432;-68
2023/04/07 05:09:24;;;;;;;18.03;12.07;;;;;;;-143.84;48.25;45205.22;5068336;28;20441;-68
2023/04/07 05:11:52;;;;;;;17.37;12.30;;;;;;;-143.84;49.05;45176.66;5067631;28;20550;-68
2023/04/07 05:14:21;;;;;;;17.30;12.20;;;;;;;-143.84;48.85;45201.41;5068254;28;20461;-68
2023/04/07 05:16:48;;;;;;;28.30;12.00;;;;;;;-143.84;49.00;45195.69;5068484;28;20931;-68
2023/04/07 05:19:15;;;;;;;19.97;12.37;;;;;;;-143.84;48.68;45216.63;5068588;28;20468;-68
2023/04/07 05:21:42;;;;;;;22.17;11.53;;;;;;;-143.84;48.53;45197.59;5069668;28;20445;-68
2023/04/07 05:24:09;;;;;;;12.57;10.80;;;;;;;-143.84;48.03;45176.66;5072122;28;20452;-68
2023/04/07 05:26:37;;;;;;;12.43;10.77;;;;;;;-143.84;47.83;45201.41;5071409;28;20441;-68
2023/04/07 05:29:08;;;;;;;14.27;11.20;;;;;;;-143.84;47.68;45193.78;5071734;28;20448;-68
2023/04/07 05:31:36;;;;;;;15.73;12.30;;;;;;;-143.84;47.73;45188.06;5071970;28;20453;-68
2023/04/07 05:34:03;;;;;;;17.90;11.80;;;;;;;-143.84;47.00;45167.13;5072071;28;20441;-68
2023/04/07 05:36:30;;;;;;;16.13;11.53;;;;;;;-143.84;46.49;45184.25;5072035;28;20441;-68
2023/04/07 05:38:57;;;;;;;17.47;12.07;;;;;;;-143.84;46.89;45210.94;5071457;28;20515;-68
2023/04/07 05:41:25;;;;;;;20.30;11.10;;;;;;;-143.84;47.08;45191.88;5071842;28;20950;-68
2023/04/07 05:43:52;;;;;;;14.80;11.80;;;;;;;-143.84;46.86;45174.75;5072160;28;20451;-68
2023/04/07 05:46:21;;;;;;;18.17;11.27;;;;;;;-143.84;47.38;45188.06;5071606;28;20445;-68
2023/04/07 05:48:48;;;;;;;25.03;12.13;;;;;;;-143.84;46.85;45169.03;5072002;28;20445;-68
2023/04/07 05:51:15;;;;;;;15.97;11.10;;;;;;;-143.84;46.57;45193.78;5071920;28;20510;-68
2023/04/07 05:53:42;;;;;;;15.80;11.17;;;;;;;-143.84;45.87;45205.22;5071894;28;20469;-68
2023/04/07 05:56:09;;;;;;;20.70;11.27;;;;;;;-143.84;44.96;45153.81;5071740;28;20453;-68
2023/04/07 05:58:37;;;;;;;16.60;12.47;;;;;;;-143.84;44.44;45180.47;5070962;28;20488;-67
2023/04/07 06:01:04;;;;;;;21.40;11.10;;;;;;;-143.84;42.73;45191.88;5070531;28;20459;-67
2023/04/07 06:03:33;;;;;;;17.17;11.33;;;;;;;-143.84;42.70;45186.16;5070659;28;21015;-70
2023/04/07 06:06:00;;;;;;;15.53;11.37;;;;;;;-143.84;42.90;45174.75;5071093;28;20452;-68
2023/04/07 06:08:27;;;;;;;16.23;11.57;;;;;;;-143.84;43.21;45157.59;5071260;28;20429;-68
2023/04/07 06:10:55;;;;;;;17.10;11.60;;;;;;;-143.84;43.21;45193.78;5070946;28;20493;-67
2023/04/07 06:13:22;;;;;;;19.77;12.07;;;;;;;-143.84;43.12;45188.06;5071589;28;20438;-68
2023/04/07 06:15:49;;;;;;;14.83;12.43;;;;;;;-143.84;43.45;45180.47;5071223;28;20437;-67
2023/04/07 06:18:16;;;;;;;17.53;12.83;;;;;;;-143.84;43.11;45167.13;5071141;28;20491;-68
2023/04/07 06:20:45;;;;;;;16.43;12.07;;;;;;;-143.84;42.32;45176.66;5070322;28;20970;-67
2023/04/07 06:23:12;;;;;;;18.63;12.30;;;;;;;-143.84;42.19;45188.06;5070828;28;20458;-68
2023/04/07 06:25:39;;;;;;;17.63;12.40;;;;;;;-143.84;41.76;45157.59;5071211;28;20441;-68
2023/04/07 06:28:06;;;;;;;17.07;11.10;;;;;;;-143.84;42.62;45174.75;5069860;28;20701;-68
2023/04/07 06:30:35;;;;;;;23.63;11.77;;;;;;;-143.84;42.45;45178.56;5071283;28;20427;-68
2023/04/07 06:33:02;;;;;;;17.33;11.23;;;;;;;-143.84;41.73;45170.94;5070441;28;20447;-68
2023/04/07 06:35:29;;;;;;;16.33;12.23;;;;;;;-143.84;42.40;45169.03;5070574;28;20452;-68
2023/04/07 06:37:58;;;;;;;21.73;13.10;;;;;;;-143.84;42.15;45155.69;5070880;28;20543;-68
2023/04/07 06:40:25;;;;;;;18.07;12.87;;;;;;;-143.84;42.39;45186.16;5070752;28;21019;-68
2023/04/07 06:42:53;;;;;;;27.07;13.40;;;;;;;-143.84;41.40;45170.94;5070386;28;20804;-68
2023/04/07 06:45:20;;;;;;;21.77;12.30;;;;;;;-143.84;42.05;45165.22;5069465;28;21072;-68
2023/04/07 06:47:47;;;;;;;17.53;11.30;;;;;;;-143.84;41.17;45151.91;5068989;28;20523;-68
2023/04/07 06:50:16;;;;;;;13.97;11.10;;;;;;;-143.84;41.12;45153.81;5069753;28;20448;-68
2023/04/07 06:52:43;;;;;;;14.10;10.80;;;;;;;-143.84;40.29;45163.31;5069968;28;20463;-68
2023/04/07 06:55:12;;;;;;;17.10;10.87;;;;;;;-143.84;38.93;45172.84;5070252;28;20475;-68
2023/04/07 06:57:39;;;;;;;17.87;12.00;;;;;;;-143.84;39.32;45130.94;5070360;28;20481;-68
2023/04/07 07:00:08;;;;;;;13.73;11.40;;;;;;;-143.84;38.73;45155.69;5070103;28;20830;-68
2023/04/07 07:02:35;;;;;;;18.33;11.13;;;;;;;-143.84;38.35;45138.56;5069870;28;20444;-71
2023/04/07 07:05:03;;;;;;;14.37;11.93;;;;;;;-143.84;38.35;45151.91;5070211;28;20450;-71
2023/04/07 07:07:30;;;;;;;13.80;10.43;;;;;;;-143.84;38.69;45155.69;5070204;28;20478;-71
2023/04/07 07:09:58;;;;;;;17.47;11.40;;;;;;;-143.84;38.52;45180.47;5069027;28;20487;-71
2023/04/07 07:12:26;;;;;;;20.53;12.23;;;;;;;-143.84;37.65;45159.50;5069120;28;20543;-71
2023/04/07 07:14:53;;;;;;;20.10;12.93;;;;;;;-143.84;37.54;45151.91;5069472;28;20445;-71
2023/04/07 07:17:20;;;;;;;20.67;12.50;;;;;;;-143.84;38.07;45167.13;5070039;28;20488;-72
2023/04/07 07:19:47;;;;;;;20.80;12.93;;;;;;;-143.84;38.70;45170.94;5070155;28;20545;-72
2023/04/07 07:22:15;;;;;;;24.53;13.60;;;;;;;-143.84;38.87;45142.38;5070486;28;21223;-72
2023/04/07 07:24:42;;;;;;;17.47;12.93;;;;;;;-143.84;38.55;45146.19;5070346;28;20507;-71
2023/04/07 07:27:09;;;;;;;15.53;11.60;;;;;;;-143.84;37.53;45157.59;5070087;28;21035;-71
2023/04/07 07:29:38;;;;;;;19.63;10.73;;;;;;;-143.84;37.01;45146.19;5069562;28;20539;-72
2023/04/07 07:32:05;;;;;;;18.77;12.03;;;;;;;-143.84;35.66;45138.56;5069985;28;20440;-72
2023/04/07 07:34:32;;;;;;;16.95;11.95;;;;;;;-143.84;35.81;45150.00;5068940;28;20437;-72
2023/04/07 07:36:59;;;;;;;20.50;11.83;;;;;;;-143.84;35.59;45123.34;5069648;28;20201;-73
2023/04/07 07:39:27;;;;;;;15.17;10.50;;;;;;;-143.84;35.33;45140.47;5069891;28;20597;-72
2023/04/07 07:41:54;;;;;;;16.20;11.00;;;;;;;-143.84;35.37;45130.94;5069507;28;20782;-72
2023/04/07 07:44:22;;;;;;;15.30;11.03;;;;;;;-143.84;34.62;45138.56;5068768;28;20443;-72
2023/04/07 07:46:51;;;;;;;18.10;10.90;;;;;;;-143.84;34.22;45167.13;5069413;28;20448;-72
2023/04/07 07:49:18;;;;;;;14.93;10.87;;;;;;;-143.84;34.90;45132.84;5069231;28;20449;-72
2023/04/07 07:51:46;;;;;;;18.70;11.47;;;;;;;-143.84;35.17;45138.56;5069292;28;20450;-72
2023/04/07 07:54:13;;;;;;;16.90;12.07;;;;;;;-143.84;35.71;45111.91;5069507;28;20436;-72
2023/04/07 07:56:40;;;;;;;14.93;11.00;;;;;;;-143.84;34.98;45125.22;5068760;28;20863;-72
2023/04/07 07:59:07;;;;;;;13.70;10.33;;;;;;;-143.84;35.47;45104.28;5068246;28;20488;-72
2023/04/07 08:01:34;;;;;;;15.50;10.90;;;;;;;-143.84;35.40;45129.03;5068226;28;20512;-72
2023/04/07 08:04:03;;;;;;;19.10;10.57;;;;;;;-143.84;35.08;45138.56;5068294;28;20764;-72
2023/04/07 08:06:31;;;;;;;24.73;9.97;;;;;;;-143.84;34.86;45129.03;5067962;28;20458;-72
2023/04/07 08:08:58;;;;;;;19.37;11.63;;;;;;;-143.84;34.90;45102.38;5068336;28;21076;-71
2023/04/07 08:11:25;;;;;;;15.33;10.67;;;;;;;-143.84;36.07;45129.03;5068123;28;20482;-71
2023/04/07 08:13:53;;;;;;;22.17;11.13;;;;;;;-143.84;34.92;45129.03;5069159;28;20441;-71
2023/04/07 08:16:21;;;;;;;15.60;11.37;;;;;;;-143.84;36.16;45098.56;5068948;28;20441;-72
2023/04/07 08:18:48;;;;;;;27.27;11.73;;;;;;;-143.84;35.16;45136.66;5069054;28;20952;-72
2023/04/07 08:21:16;;;;;;;14.93;9.67;;;;;;;-143.84;35.53;45132.84;5068758;28;20441;-72
2023/04/07 08:23:44;;;;;;;12.30;10.57;;;;;;;-143.84;35.10;45132.84;5069095;28;20443;-71
2023/04/07 08:26:11;;;;;;;16.50;10.47;;;;;;;-143.84;34.31;45110.00;5068786;28;20445;-71
2023/04/07 08:28:39;;;;;;;18.20;11.27;;;;;;;-143.84;34.84;45138.56;5068903;28;20446;-72
2023/04/07 08:31:07;;;;;;;15.10;11.40;;;;;;;-143.84;34.47;45127.13;5068824;28;20455;-72
2023/04/07 08:33:34;;;;;;;13.53;9.30;;;;;;;-143.84;33.98;45138.56;5068994;28;20869;-72
2023/04/07 08:36:01;;;;;;;15.43;10.40;;;;;;;-143.84;34.44;45127.13;5068804;28;20440;-72
2023/04/07 08:38:30;;;;;;;23.50;10.67;;;;;;;-143.84;33.77;45110.00;5068572;28;20480;-72
2023/04/07 08:41:03;;;;;;;21.87;9.80;;;;;;;-143.84;35.08;45108.09;5068804;28;20500;-72
2023/04/07 08:43:31;;;;;;;15.50;10.13;;;;;;;-143.84;33.47;45123.34;5068544;28;20433;-72
2023/04/07 08:45:59;;;;;;;17.03;10.27;;;;;;;-143.84;34.43;45123.34;5068820;28;20980;-72
2023/04/07 08:48:32;;;;;;;13.03;10.20;;;;;;;-143.84;34.54;45111.91;5068432;28;20451;-72
2023/04/07 08:51:04;;;;;;;18.27;10.17;;;;;;;-143.84;34.45;45121.44;5047710;28;20441;-72
2023/04/07 08:53:42;;;;;;;14.37;11.10;;;;;;;-143.84;33.67;45146.19;5048089;28;20449;-72
2023/04/07 08:56:11;;;;;;;20.83;11.07;;;;;;;-143.84;33.77;45148.09;5050668;28;20507;-72
2023/04/07 08:58:40;;;;;;;19.53;10.60;;;;;;;-143.84;33.77;45121.44;5052462;28;20488;-72
2023/04/07 09:01:09;;;;;;;17.33;12.57;;;;;;;-143.84;33.75;45115.72;5052372;28;20488;-72
2023/04/07 09:03:36;;;;;;;16.90;12.43;;;;;;;-143.84;34.31;45117.63;5051788;28;20452;-73
2023/04/07 09:06:05;;;;;;;17.07;10.87;;;;;;;-143.84;34.12;45121.44;5052078;28;20445;-72
2023/04/07 09:08:33;;;;;;;18.57;13.27;;;;;;;-143.84;33.83;45129.03;5051832;28;20441;-72
2023/04/07 09:11:00;;;;;;;20.50;13.27;;;;;;;-143.84;34.30;45096.66;5051910;28;20496;-72
2023/04/07 09:13:28;;;;;;;20.40;12.80;;;;;;;-143.84;34.00;45121.44;5052447;28;20448;-72
2023/04/07 09:15:55;;;;;;;17.07;11.33;;;;;;;-143.84;34.16;45094.78;5052171;28;20452;-72
2023/04/07 09:18:22;;;;;;;21.73;13.13;;;;;;;-143.84;34.52;45104.28;5052231;28;20441;-72
2023/04/07 09:20:57;;;;;;;15.20;10.60;;;;;;;-143.84;33.84;45125.22;5059381;28;20441;-72
2023/04/07 09:23:32;;;;;;;16.97;10.63;;;;;;;-143.84;34.23;45134.75;5071680;28;20887;-72
2023/04/07 09:26:18;;;;;;;14.33;9.67;;;;;;;-143.84;35.13;45127.13;5071327;28;20889;-72
2023/04/07 09:28:47;;;;;;;15.33;11.77;;;;;;;-143.84;35.56;45155.69;5072237;28;20433;-72
2023/04/07 09:31:14;;;;;;;22.87;10.70;;;;;;;-143.84;34.45;45115.72;5071435;28;20884;-72
2023/04/07 09:33:42;;;;;;;16.83;10.73;;;;;;;-143.84;34.85;45132.84;5071785;28;20464;-72
2023/04/07 09:36:09;;;;;;;13.17;10.40;;;;;;;-143.84;34.96;45115.72;5072013;28;20534;-72
2023/04/07 09:38:38;;;;;;;14.23;10.10;;;;;;;-143.84;34.49;45138.56;5072029;28;20578;-72
2023/04/07 09:41:11;;;;;;;14.00;10.00;;;;;;;-143.84;34.73;45136.66;5071784;28;20447;-72
2023/04/07 09:43:40;;;;;;;22.03;10.17;;;;;;;-143.84;35.03;45113.81;5072078;28;21324;-72
2023/04/07 09:46:08;;;;;;;19.17;11.37;;;;;;;-143.84;34.83;45121.44;5072194;28;20431;-72
2023/04/07 09:48:35;;;;;;;16.87;11.47;;;;;;;-143.84;36.20;45121.44;5071699;28;20792;-72
2023/04/07 09:51:06;;;;;;;24.13;11.17;;;;;;;-143.84;35.58;45098.56;5071723;28;20456;-72
2023/04/07 09:53:43;;;;;;;17.80;11.40;;;;;;;-143.84;35.05;45140.47;5071730;28;20440;-72
2023/04/07 09:56:12;;;;;;;13.13;10.60;;;;;;;-143.84;35.33;45140.47;5070997;28;20436;-72
2023/04/07 09:58:40;;;;;;;17.53;10.23;;;;;;;-143.84;36.39;45129.03;5071066;28;20649;-72
2023/04/07 10:01:09;;;;;;;15.40;9.83;;;;;;;-143.84;35.82;45106.19;5071408;28;20448;-72
2023/04/07 10:03:37;;;;;;;20.47;12.67;;;;;;;-143.84;34.12;45104.28;5071468;28;20448;-72
2023/04/07 10:06:05;;;;;;;15.20;11.30;;;;;;;-143.84;33.83;45090.97;5071771;28;20447;-72
2023/04/07 10:08:34;;;;;;;16.53;9.77;;;;;;;-143.84;35.08;45115.72;5070682;28;20527;-72
2023/04/07 10:11:02;;;;;;;18.53;9.90;;;;;;;-143.84;34.65;45125.22;5071453;28;20888;-72
2023/04/07 10:13:32;;;;;;;16.83;10.60;;;;;;;-143.84;34.87;45098.56;5071323;28;20508;-72
2023/04/07 10:16:00;;;;;;;20.00;10.80;;;;;;;-143.84;33.48;45123.34;5071310;28;20505;-72
2023/04/07 10:18:30;;;;;;;15.53;10.27;;;;;;;-143.84;34.95;45106.19;5070942;28;20446;-72
2023/04/07 10:20:58;;;;;;;15.17;9.97;;;;;;;-143.84;33.77;45108.09;5071369;28;20450;-73
2023/04/07 10:23:32;;;;;;;18.03;12.37;;;;;;;-143.84;34.73;45113.81;5070948;28;20441;-72
2023/04/07 10:26:01;;;;;;;12.87;10.20;;;;;;;-143.84;34.52;45115.72;5071552;28;20451;-73
2023/04/07 10:28:31;;;;;;;14.67;9.20;;;;;;;-143.84;33.80;45100.47;5071317;28;20437;-73
2023/04/07 10:30:59;;;;;;;13.70;9.70;;;;;;;-143.84;36.18;45106.19;5070966;28;20453;-72
2023/04/07 10:33:46;;;;;;;13.77;10.83;;;;;;;-143.84;36.15;45117.63;5071008;28;20962;-72
2023/04/07 10:36:43;;;;;;;18.17;10.90;;;;;;;-143.84;34.94;45098.56;5070917;28;20515;-72
2023/04/07 10:39:20;;;;;;;18.07;10.70;;;;;;;-143.84;34.42;45087.16;5060913;28;20485;-72
2023/04/07 10:41:47;;;;;;;18.73;10.83;;;;;;;-143.84;34.92;45108.09;5069998;28;20457;-72
2023/04/07 10:44:47;;;;;;;17.13;10.63;;;;;;;-143.84;33.83;45110.00;5070565;28;20446;-72
2023/04/07 10:47:15;;;;;;;13.20;9.80;;;;;;;-143.84;33.25;45096.66;5065650;28;20461;-73
2023/04/07 10:50:15;;;;;;;14.57;9.20;;;;;;;-143.84;33.13;45132.84;5069673;28;20943;-73
2023/04/07 10:52:43;;;;;;;17.30;10.47;;;;;;;-143.84;34.00;45089.06;5069986;28;20505;-72
2023/04/07 10:55:29;;;;;;;14.40;12.03;;;;;;;-143.84;34.48;45110.00;5070068;28;20465;-72
2023/04/07 10:58:18;;;;;;;21.37;11.60;;;;;;;-143.84;34.21;45104.28;5070326;28;20447;-72
2023/04/07 11:01:23;;;;;;;19.30;13.63;;;;;;;-143.84;35.48;45121.44;5070438;28;21025;-72
2023/04/07 11:03:58;;;;;;;21.73;12.93;;;;;;;-143.84;35.03;45106.19;5070380;28;20826;-72
2023/04/07 11:06:26;;;;;;;31.47;16.10;;;;;;;-143.84;35.25;45117.63;5070178;28;20527;-72
2023/04/07 11:08:54;;;;;;;34.87;13.77;;;;;;;-143.84;34.57;45117.63;5069789;28;20491;-72
2023/04/07 11:11:41;;;;;;;21.10;12.43;;;;;;;-143.84;35.20;45121.44;5069817;28;20484;-72
2023/04/07 11:14:08;;;;;;;17.50;12.83;;;;;;;-143.84;34.43;45085.25;5069565;28;20964;-72